sensor_id;sensor_type;location;lat;lon;timestamp;P1;durP1;ratioP1;P2;durP2;ratioP2
63114;SDS011;49208;50.874;6.466;2024-03-17T07:02:20;5.32;;;2.90;;
63114;SDS011;49208;50.874;6.466;2024-03-17T07:04:46;6.40;;;2.72;;
63114;SDS011;49208;50.874;6.466;2024-03-17T07:07:12;5.57;;;2.67;;
63114;SDS011;49208;50.874;6.466;2024-03-17T07:09:39;4.43;;;2.50;;
63114;SDS011;49208;50.874;6.466;2024-03-17T07:12:08;5.20;;;2.47;;
63114;SDS011;49208;50.874;6.466;2024-03-17T07:14:35;7.97;;;3.00;;
63114;SDS011;49208;50.874;6.466;2024-03-17T07:17:01;5.97;;;3.03;;
63114;SDS011;49208;50.874;6.466;2024-03-17T07:19:26;7.45;;;2.80;;
63114;SDS011;49208;50.874;6.466;2024-03-17T07:21:51;5.95;;;2.78;;
63114;SDS011;49208;50.874;6.466;2024-03-17T07:24:17;7.13;;;3.33;;
63114;SDS011;49208;50.874;6.466;2024-03-17T07:26:43;5.82;;;2.72;;
63114;SDS011;49208;50.874;6.466;2024-03-17T07:29:08;7.88;;;3.03;;
63114;SDS011;49208;50.874;6.466;2024-03-17T07:31:34;5.82;;;2.80;;
63114;SDS011;49208;50.874;6.466;2024-03-17T07:34:00;4.90;;;2.42;;
63114;SDS011;49208;50.874;6.466;2024-03-17T07:36:25;5.38;;;2.60;;
63114;SDS011;49208;50.874;6.466;2024-03-17T07:38:50;5.03;;;3.15;;
63114;SDS011;49208;50.874;6.466;2024-03-17T07:41:17;5.10;;;2.70;;
63114;SDS011;49208;50.874;6.466;2024-03-17T07:43:44;5.28;;;3.00;;
63114;SDS011;49208;50.874;6.466;2024-03-17T07:46:10;6.20;;;2.50;;
63114;SDS011;49208;50.874;6.466;2024-03-17T07:48:37;5.55;;;3.00;;
63114;SDS011;49208;50.874;6.466;2024-03-17T07:51:08;7.35;;;3.17;;
63114;SDS011;49208;50.874;6.466;2024-03-17T07:53:38;7.72;;;3.47;;
63114;SDS011;49208;50.874;6.466;2024-03-17T07:56:11;5.85;;;2.47;;
63114;SDS011;49208;50.874;6.466;2024-03-17T07:58:38;5.95;;;3.17;;
63114;SDS011;49208;50.874;6.466;2024-03-17T08:01:11;5.82;;;3.17;;
63114;SDS011;49208;50.874;6.466;2024-03-17T08:03:39;7.57;;;3.13;;
63114;SDS011;49208;50.874;6.466;2024-03-17T08:06:06;6.85;;;2.97;;
63114;SDS011;49208;50.874;6.466;2024-03-17T08:08:34;4.57;;;2.72;;
63114;SDS011;49208;50.874;6.466;2024-03-17T08:11:00;5.32;;;3.30;;
63114;SDS011;49208;50.874;6.466;2024-03-17T08:13:28;6.00;;;3.15;;
63114;SDS011;49208;50.874;6.466;2024-03-17T08:15:59;6.28;;;3.22;;
63114;SDS011;49208;50.874;6.466;2024-03-17T08:18:25;5.55;;;2.80;;
63114;SDS011;49208;50.874;6.466;2024-03-17T08:20:52;6.20;;;3.17;;
63114;SDS011;49208;50.874;6.466;2024-03-17T08:23:19;8.40;;;3.20;;
63114;SDS011;49208;50.874;6.466;2024-03-17T08:25:58;5.45;;;3.03;;
63114;SDS011;49208;50.874;6.466;2024-03-17T08:28:26;8.93;;;2.80;;
63114;SDS011;49208;50.874;6.466;2024-03-17T08:30:59;7.18;;;3.40;;
63114;SDS011;49208;50.874;6.466;2024-03-17T08:33:25;4.78;;;2.58;;
63114;SDS011;49208;50.874;6.466;2024-03-17T08:35:52;9.88;;;2.95;;
63114;SDS011;49208;50.874;6.466;2024-03-17T08:38:24;6.18;;;2.40;;
63114;SDS011;49208;50.874;6.466;2024-03-17T08:40:51;9.40;;;3.50;;
63114;SDS011;49208;50.874;6.466;2024-03-17T08:43:21;6.53;;;2.95;;
63114;SDS011;49208;50.874;6.466;2024-03-17T08:46:00;10.43;;;2.92;;
63114;SDS011;49208;50.874;6.466;2024-03-17T08:48:27;8.13;;;3.10;;
63114;SDS011;49208;50.874;6.466;2024-03-17T08:50:54;6.03;;;3.00;;
63114;SDS011;49208;50.874;6.466;2024-03-17T08:53:20;7.10;;;3.15;;
63114;SDS011;49208;50.874;6.466;2024-03-17T08:55:46;12.00;;;3.13;;
63114;SDS011;49208;50.874;6.466;2024-03-17T08:58:13;6.03;;;3.30;;
63114;SDS011;49208;50.874;6.466;2024-03-17T09:00:38;6.95;;;3.30;;
63114;SDS011;49208;50.874;6.466;2024-03-17T09:03:05;8.18;;;3.28;;
63114;SDS011;49208;50.874;6.466;2024-03-17T09:05:34;6.28;;;3.13;;
63114;SDS011;49208;50.874;6.466;2024-03-17T09:07:59;5.68;;;3.13;;
63114;SDS011;49208;50.874;6.466;2024-03-17T09:10:26;8.75;;;3.40;;
63114;SDS011;49208;50.874;6.466;2024-03-17T09:12:51;10.05;;;3.55;;
63114;SDS011;49208;50.874;6.466;2024-03-17T09:15:18;6.32;;;3.25;;
63114;SDS011;49208;50.874;6.466;2024-03-17T09:17:43;8.00;;;3.15;;
63114;SDS011;49208;50.874;6.466;2024-03-17T09:20:10;7.10;;;3.70;;
63114;SDS011;49208;50.874;6.466;2024-03-17T09:22:37;7.07;;;3.38;;
63114;SDS011;49208;50.874;6.466;2024-03-17T09:25:06;6.32;;;3.03;;
63114;SDS011;49208;50.874;6.466;2024-03-17T09:27:35;5.82;;;3.30;;
63114;SDS011;49208;50.874;6.466;2024-03-17T09:30:04;12.52;;;3.72;;
63114;SDS011;49208;50.874;6.466;2024-03-17T09:32:37;8.18;;;3.42;;
63114;SDS011;49208;50.874;6.466;2024-03-17T09:35:03;6.63;;;2.80;;
63114;SDS011;49208;50.874;6.466;2024-03-17T09:37:32;7.80;;;2.92;;
63114;SDS011;49208;50.874;6.466;2024-03-17T09:39:57;5.97;;;2.92;;
63114;SDS011;49208;50.874;6.466;2024-03-17T09:44:50;8.35;;;3.00;;
63114;SDS011;49208;50.874;6.466;2024-03-17T09:47:19;7.38;;;3.10;;
63114;SDS011;49208;50.874;6.466;2024-03-17T09:49:46;6.82;;;3.00;;
63114;SDS011;49208;50.874;6.466;2024-03-17T09:52:18;10.80;;;3.50;;
63114;SDS011;49208;50.874;6.466;2024-03-17T09:54:48;8.05;;;3.17;;
63114;SDS011;49208;50.874;6.466;2024-03-17T09:57:17;5.88;;;3.38;;
63114;SDS011;49208;50.874;6.466;2024-03-17T09:59:43;9.63;;;3.30;;
63114;SDS011;49208;50.874;6.466;2024-03-17T10:02:18;8.70;;;3.42;;
63114;SDS011;49208;50.874;6.466;2024-03-17T10:04:43;6.40;;;3.38;;
63114;SDS011;49208;50.874;6.466;2024-03-17T10:07:09;6.72;;;3.35;;
63114;SDS011;49208;50.874;6.466;2024-03-17T10:09:35;6.10;;;3.05;;
63114;SDS011;49208;50.874;6.466;2024-03-17T10:12:01;6.63;;;2.97;;
63114;SDS011;49208;50.874;6.466;2024-03-17T10:14:27;8.02;;;3.72;;
63114;SDS011;49208;50.874;6.466;2024-03-17T10:16:52;5.68;;;3.03;;
63114;SDS011;49208;50.874;6.466;2024-03-17T10:19:24;8.15;;;3.40;;
63114;SDS011;49208;50.874;6.466;2024-03-17T10:21:59;9.80;;;3.70;;
63114;SDS011;49208;50.874;6.466;2024-03-17T10:24:26;9.38;;;3.72;;
63114;SDS011;49208;50.874;6.466;2024-03-17T10:26:57;6.72;;;3.10;;
63114;SDS011;49208;50.874;6.466;2024-03-17T10:29:33;16.35;;;3.78;;
63114;SDS011;49208;50.874;6.466;2024-03-17T10:32:03;7.63;;;3.10;;
63114;SDS011;49208;50.874;6.466;2024-03-17T10:34:38;7.05;;;3.40;;
63114;SDS011;49208;50.874;6.466;2024-03-17T10:37:14;6.07;;;3.15;;
63114;SDS011;49208;50.874;6.466;2024-03-17T10:39:41;6.30;;;3.42;;
63114;SDS011;49208;50.874;6.466;2024-03-17T10:42:08;7.63;;;3.30;;
63114;SDS011;49208;50.874;6.466;2024-03-17T10:47:01;6.93;;;3.20;;
63114;SDS011;49208;50.874;6.466;2024-03-17T10:49:31;7.32;;;3.40;;
63114;SDS011;49208;50.874;6.466;2024-03-17T10:52:02;4.43;;;2.58;;
63114;SDS011;49208;50.874;6.466;2024-03-17T10:54:29;6.10;;;3.65;;
63114;SDS011;49208;50.874;6.466;2024-03-17T10:56:56;11.00;;;3.97;;
63114;SDS011;49208;50.874;6.466;2024-03-17T10:59:42;5.65;;;2.90;;
63114;SDS011;49208;50.874;6.466;2024-03-17T11:02:33;8.55;;;3.30;;
63114;SDS011;49208;50.874;6.466;2024-03-17T11:05:02;6.80;;;3.42;;
63114;SDS011;49208;50.874;6.466;2024-03-17T11:07:29;7.72;;;3.28;;
63114;SDS011;49208;50.874;6.466;2024-03-17T11:09:56;7.90;;;3.42;;
63114;SDS011;49208;50.874;6.466;2024-03-17T11:12:40;6.15;;;3.80;;
63114;SDS011;49208;50.874;6.466;2024-03-17T11:17:43;8.45;;;3.88;;
63114;SDS011;49208;50.874;6.466;2024-03-17T11:20:15;9.75;;;3.80;;
63114;SDS011;49208;50.874;6.466;2024-03-17T11:22:44;6.43;;;3.90;;
63114;SDS011;49208;50.874;6.466;2024-03-17T11:27:51;7.20;;;3.80;;
63114;SDS011;49208;50.874;6.466;2024-03-17T11:38:55;6.75;;;3.70;;
63114;SDS011;49208;50.874;6.466;2024-03-17T11:46:40;10.20;;;3.70;;
63114;SDS011;49208;50.874;6.466;2024-03-17T11:49:12;6.88;;;3.95;;
63114;SDS011;49208;50.874;6.466;2024-03-17T11:51:45;6.10;;;3.60;;
63114;SDS011;49208;50.874;6.466;2024-03-17T11:54:20;8.63;;;3.75;;
63114;SDS011;49208;50.874;6.466;2024-03-17T11:56:49;7.95;;;3.83;;
63114;SDS011;49208;50.874;6.466;2024-03-17T11:59:17;8.25;;;3.53;;
63114;SDS011;49208;50.874;6.466;2024-03-17T12:01:44;8.13;;;3.92;;
63114;SDS011;49208;50.874;6.466;2024-03-17T12:04:14;8.32;;;3.85;;
63114;SDS011;49208;50.874;6.466;2024-03-17T12:06:44;6.87;;;3.53;;
63114;SDS011;49208;50.874;6.466;2024-03-17T12:12:00;8.07;;;3.00;;
63114;SDS011;49208;50.874;6.466;2024-03-17T12:14:30;7.18;;;3.90;;
63114;SDS011;49208;50.874;6.466;2024-03-17T12:16:56;6.55;;;3.80;;
63114;SDS011;49208;50.874;6.466;2024-03-17T12:19:24;6.97;;;4.00;;
63114;SDS011;49208;50.874;6.466;2024-03-17T12:21:57;6.30;;;3.77;;
63114;SDS011;49208;50.874;6.466;2024-03-17T12:24:25;8.50;;;4.00;;
63114;SDS011;49208;50.874;6.466;2024-03-17T12:26:53;6.60;;;3.90;;
63114;SDS011;49208;50.874;6.466;2024-03-17T12:29:27;7.05;;;3.80;;
63114;SDS011;49208;50.874;6.466;2024-03-17T12:32:06;9.13;;;4.25;;
63114;SDS011;49208;50.874;6.466;2024-03-17T12:34:37;6.50;;;3.63;;
63114;SDS011;49208;50.874;6.466;2024-03-17T12:37:03;6.57;;;3.50;;
63114;SDS011;49208;50.874;6.466;2024-03-17T12:39:30;6.78;;;3.70;;
63114;SDS011;49208;50.874;6.466;2024-03-17T12:44:28;9.30;;;4.75;;
63114;SDS011;49208;50.874;6.466;2024-03-17T12:46:58;9.68;;;4.07;;
63114;SDS011;49208;50.874;6.466;2024-03-17T12:49:27;7.32;;;4.10;;
63114;SDS011;49208;50.874;6.466;2024-03-17T12:51:57;7.88;;;4.40;;
63114;SDS011;49208;50.874;6.466;2024-03-17T12:54:25;6.68;;;3.75;;
63114;SDS011;49208;50.874;6.466;2024-03-17T12:59:46;11.38;;;4.15;;
63114;SDS011;49208;50.874;6.466;2024-03-17T13:02:30;8.15;;;4.25;;
63114;SDS011;49208;50.874;6.466;2024-03-17T13:07:45;7.22;;;4.10;;
63114;SDS011;49208;50.874;6.466;2024-03-17T13:10:14;10.70;;;4.10;;
63114;SDS011;49208;50.874;6.466;2024-03-17T13:12:41;8.75;;;4.35;;
63114;SDS011;49208;50.874;6.466;2024-03-17T13:15:11;9.73;;;4.07;;
63114;SDS011;49208;50.874;6.466;2024-03-17T13:17:42;6.68;;;3.75;;
63114;SDS011;49208;50.874;6.466;2024-03-17T13:20:12;8.30;;;4.20;;
63114;SDS011;49208;50.874;6.466;2024-03-17T13:22:42;7.88;;;4.30;;
63114;SDS011;49208;50.874;6.466;2024-03-17T13:25:12;9.32;;;4.45;;
63114;SDS011;49208;50.874;6.466;2024-03-17T13:27:41;9.52;;;4.32;;
63114;SDS011;49208;50.874;6.466;2024-03-17T13:30:07;8.52;;;4.22;;
63114;SDS011;49208;50.874;6.466;2024-03-17T13:32:34;7.50;;;4.32;;
63114;SDS011;49208;50.874;6.466;2024-03-17T13:35:02;7.45;;;5.00;;
63114;SDS011;49208;50.874;6.466;2024-03-17T13:37:28;7.18;;;4.05;;
63114;SDS011;49208;50.874;6.466;2024-03-17T13:39:54;8.77;;;4.65;;
63114;SDS011;49208;50.874;6.466;2024-03-17T13:42:19;6.00;;;3.67;;
63114;SDS011;49208;50.874;6.466;2024-03-17T13:44:45;7.80;;;4.03;;
63114;SDS011;49208;50.874;6.466;2024-03-17T13:47:11;11.38;;;4.20;;
63114;SDS011;49208;50.874;6.466;2024-03-17T13:49:38;6.47;;;3.75;;
63114;SDS011;49208;50.874;6.466;2024-03-17T13:52:04;7.03;;;3.95;;
63114;SDS011;49208;50.874;6.466;2024-03-17T13:54:29;7.13;;;3.50;;
63114;SDS011;49208;50.874;6.466;2024-03-17T13:56:55;9.25;;;4.00;;
63114;SDS011;49208;50.874;6.466;2024-03-17T13:59:23;8.82;;;4.28;;
63114;SDS011;49208;50.874;6.466;2024-03-17T14:01:49;7.57;;;4.15;;
63114;SDS011;49208;50.874;6.466;2024-03-17T14:04:15;7.50;;;3.35;;
63114;SDS011;49208;50.874;6.466;2024-03-17T14:06:46;7.30;;;4.05;;
63114;SDS011;49208;50.874;6.466;2024-03-17T14:09:14;6.97;;;3.55;;
63114;SDS011;49208;50.874;6.466;2024-03-17T14:11:42;7.63;;;3.70;;
63114;SDS011;49208;50.874;6.466;2024-03-17T14:14:08;6.05;;;3.67;;
63114;SDS011;49208;50.874;6.466;2024-03-17T14:16:33;7.30;;;3.63;;
63114;SDS011;49208;50.874;6.466;2024-03-17T14:19:00;7.68;;;3.75;;
63114;SDS011;49208;50.874;6.466;2024-03-17T14:23:52;6.23;;;3.07;;
63114;SDS011;49208;50.874;6.466;2024-03-17T14:26:18;6.47;;;3.45;;
63114;SDS011;49208;50.874;6.466;2024-03-17T14:28:43;8.63;;;3.30;;
63114;SDS011;49208;50.874;6.466;2024-03-17T14:31:08;8.02;;;3.60;;
63114;SDS011;49208;50.874;6.466;2024-03-17T14:33:34;6.03;;;3.53;;
63114;SDS011;49208;50.874;6.466;2024-03-17T14:35:59;7.43;;;3.42;;
63114;SDS011;49208;50.874;6.466;2024-03-17T14:38:25;6.95;;;3.35;;
63114;SDS011;49208;50.874;6.466;2024-03-17T14:40:53;6.13;;;2.92;;
63114;SDS011;49208;50.874;6.466;2024-03-17T14:43:19;7.30;;;3.67;;
63114;SDS011;49208;50.874;6.466;2024-03-17T14:45:45;8.95;;;3.55;;
63114;SDS011;49208;50.874;6.466;2024-03-17T14:48:11;6.53;;;3.95;;
63114;SDS011;49208;50.874;6.466;2024-03-17T14:50:38;7.78;;;3.90;;
63114;SDS011;49208;50.874;6.466;2024-03-17T14:53:04;8.07;;;3.95;;
63114;SDS011;49208;50.874;6.466;2024-03-17T14:55:30;6.72;;;3.38;;
63114;SDS011;49208;50.874;6.466;2024-03-17T14:57:55;8.65;;;3.92;;
63114;SDS011;49208;50.874;6.466;2024-03-17T15:00:21;6.90;;;3.55;;
63114;SDS011;49208;50.874;6.466;2024-03-17T15:02:48;6.25;;;3.50;;
63114;SDS011;49208;50.874;6.466;2024-03-17T15:05:16;6.20;;;3.47;;
63114;SDS011;49208;50.874;6.466;2024-03-17T15:07:47;6.53;;;3.15;;
63114;SDS011;49208;50.874;6.466;2024-03-17T15:10:13;6.53;;;3.70;;
63114;SDS011;49208;50.874;6.466;2024-03-17T15:12:48;7.03;;;3.47;;
63114;SDS011;49208;50.874;6.466;2024-03-17T15:15:15;10.80;;;4.07;;
63114;SDS011;49208;50.874;6.466;2024-03-17T15:17:40;6.43;;;3.28;;
63114;SDS011;49208;50.874;6.466;2024-03-17T15:20:09;7.85;;;3.97;;
63114;SDS011;49208;50.874;6.466;2024-03-17T15:25:12;7.60;;;3.77;;
63114;SDS011;49208;50.874;6.466;2024-03-17T15:27:41;5.63;;;3.17;;
63114;SDS011;49208;50.874;6.466;2024-03-17T15:30:16;11.60;;;3.40;;
63114;SDS011;49208;50.874;6.466;2024-03-17T15:32:47;5.75;;;3.40;;
63114;SDS011;49208;50.874;6.466;2024-03-17T15:35:14;6.78;;;4.15;;
63114;SDS011;49208;50.874;6.466;2024-03-17T15:37:40;9.48;;;3.70;;
63114;SDS011;49208;50.874;6.466;2024-03-17T15:40:07;7.47;;;3.35;;
63114;SDS011;49208;50.874;6.466;2024-03-17T15:42:33;7.43;;;2.70;;
63114;SDS011;49208;50.874;6.466;2024-03-17T15:44:59;6.45;;;2.25;;
63114;SDS011;49208;50.874;6.466;2024-03-17T15:47:24;4.43;;;2.55;;
63114;SDS011;49208;50.874;6.466;2024-03-17T15:49:50;5.53;;;1.73;;
63114;SDS011;49208;50.874;6.466;2024-03-17T15:52:15;7.43;;;2.00;;
63114;SDS011;49208;50.874;6.466;2024-03-17T15:54:40;6.15;;;2.10;;
63114;SDS011;49208;50.874;6.466;2024-03-17T15:57:06;5.47;;;1.70;;
63114;SDS011;49208;50.874;6.466;2024-03-17T15:59:32;5.78;;;2.10;;
63114;SDS011;49208;50.874;6.466;2024-03-17T16:01:59;6.65;;;1.95;;
63114;SDS011;49208;50.874;6.466;2024-03-17T16:04:26;3.83;;;1.50;;
63114;SDS011;49208;50.874;6.466;2024-03-17T16:06:51;4.88;;;1.85;;
63114;SDS011;49208;50.874;6.466;2024-03-17T16:09:19;3.80;;;1.80;;
63114;SDS011;49208;50.874;6.466;2024-03-17T16:11:45;4.72;;;1.85;;
63114;SDS011;49208;50.874;6.466;2024-03-17T16:14:11;6.82;;;2.00;;
63114;SDS011;49208;50.874;6.466;2024-03-17T16:16:39;6.38;;;2.05;;
63114;SDS011;49208;50.874;6.466;2024-03-17T16:19:05;4.15;;;1.65;;
63114;SDS011;49208;50.874;6.466;2024-03-17T16:21:32;6.53;;;2.50;;
63114;SDS011;49208;50.874;6.466;2024-03-17T16:26:30;7.07;;;2.28;;
63114;SDS011;49208;50.874;6.466;2024-03-17T16:28:56;5.90;;;1.90;;
63114;SDS011;49208;50.874;6.466;2024-03-17T16:31:22;5.45;;;2.00;;
63114;SDS011;49208;50.874;6.466;2024-03-17T16:33:50;4.50;;;2.08;;
63114;SDS011;49208;50.874;6.466;2024-03-17T16:36:16;5.55;;;2.08;;
63114;SDS011;49208;50.874;6.466;2024-03-17T16:38:42;3.75;;;1.75;;
63114;SDS011;49208;50.874;6.466;2024-03-17T16:41:09;4.20;;;1.70;;
63114;SDS011;49208;50.874;6.466;2024-03-17T16:43:56;4.18;;;1.65;;
63114;SDS011;49208;50.874;6.466;2024-03-17T16:46:29;5.65;;;2.50;;
63114;SDS011;49208;50.874;6.466;2024-03-17T16:49:09;5.05;;;2.38;;
63114;SDS011;49208;50.874;6.466;2024-03-17T16:51:36;6.82;;;2.00;;
63114;SDS011;49208;50.874;6.466;2024-03-17T16:54:02;6.72;;;2.13;;
63114;SDS011;49208;50.874;6.466;2024-03-17T16:56:28;6.00;;;1.92;;
63114;SDS011;49208;50.874;6.466;2024-03-17T16:58:54;7.07;;;2.03;;
63114;SDS011;49208;50.874;6.466;2024-03-17T17:01:20;5.72;;;1.73;;
63114;SDS011;49208;50.874;6.466;2024-03-17T17:03:45;3.85;;;1.65;;
63114;SDS011;49208;50.874;6.466;2024-03-17T17:06:11;6.32;;;2.35;;
63114;SDS011;49208;50.874;6.466;2024-03-17T17:08:37;5.90;;;3.38;;
63114;SDS011;49208;50.874;6.466;2024-03-17T17:11:03;4.88;;;2.40;;
63114;SDS011;49208;50.874;6.466;2024-03-17T17:13:28;5.82;;;2.60;;
63114;SDS011;49208;50.874;6.466;2024-03-17T17:15:55;5.43;;;2.70;;
63114;SDS011;49208;50.874;6.466;2024-03-17T17:21:21;5.50;;;2.42;;
63114;SDS011;49208;50.874;6.466;2024-03-17T17:23:46;5.68;;;2.45;;
63114;SDS011;49208;50.874;6.466;2024-03-17T17:26:15;6.35;;;2.35;;
63114;SDS011;49208;50.874;6.466;2024-03-17T17:28:54;5.68;;;2.40;;
63114;SDS011;49208;50.874;6.466;2024-03-17T17:31:24;4.93;;;2.20;;
63114;SDS011;49208;50.874;6.466;2024-03-17T17:33:51;5.38;;;2.20;;
63114;SDS011;49208;50.874;6.466;2024-03-17T17:36:17;6.25;;;2.13;;
63114;SDS011;49208;50.874;6.466;2024-03-17T17:38:43;4.50;;;1.75;;
63114;SDS011;49208;50.874;6.466;2024-03-17T17:41:09;6.18;;;2.05;;
63114;SDS011;49208;50.874;6.466;2024-03-17T17:43:39;4.60;;;2.92;;
63114;SDS011;49208;50.874;6.466;2024-03-17T17:46:08;7.18;;;2.83;;
63114;SDS011;49208;50.874;6.466;2024-03-17T17:48:35;6.78;;;4.40;;
63114;SDS011;49208;50.874;6.466;2024-03-17T17:51:05;4.33;;;2.23;;
63114;SDS011;49208;50.874;6.466;2024-03-17T17:53:32;5.45;;;2.72;;
63114;SDS011;49208;50.874;6.466;2024-03-17T17:55:59;5.33;;;3.00;;
63114;SDS011;49208;50.874;6.466;2024-03-17T17:58:30;6.80;;;2.75;;
63114;SDS011;49208;50.874;6.466;2024-03-17T18:00:56;5.07;;;2.42;;
63114;SDS011;49208;50.874;6.466;2024-03-17T18:03:22;6.20;;;3.22;;
63114;SDS011;49208;50.874;6.466;2024-03-17T18:05:48;4.53;;;2.45;;
63114;SDS011;49208;50.874;6.466;2024-03-17T18:08:13;4.68;;;2.40;;
63114;SDS011;49208;50.874;6.466;2024-03-17T18:10:39;4.72;;;2.63;;
63114;SDS011;49208;50.874;6.466;2024-03-17T18:13:04;7.45;;;2.67;;
63114;SDS011;49208;50.874;6.466;2024-03-17T18:15:30;5.57;;;2.30;;
63114;SDS011;49208;50.874;6.466;2024-03-17T18:17:56;9.63;;;3.00;;
63114;SDS011;49208;50.874;6.466;2024-03-17T18:20:22;6.63;;;2.83;;
63114;SDS011;49208;50.874;6.466;2024-03-17T18:22:48;4.63;;;2.30;;
63114;SDS011;49208;50.874;6.466;2024-03-17T18:25:13;7.47;;;3.78;;
63114;SDS011;49208;50.874;6.466;2024-03-17T18:27:39;7.28;;;4.00;;
63114;SDS011;49208;50.874;6.466;2024-03-17T18:30:04;7.90;;;5.10;;
63114;SDS011;49208;50.874;6.466;2024-03-17T18:32:30;7.80;;;3.90;;
63114;SDS011;49208;50.874;6.466;2024-03-17T18:34:56;8.57;;;4.93;;
63114;SDS011;49208;50.874;6.466;2024-03-17T18:37:22;6.80;;;3.33;;
63114;SDS011;49208;50.874;6.466;2024-03-17T18:42:15;8.18;;;3.45;;
63114;SDS011;49208;50.874;6.466;2024-03-17T18:44:40;15.20;;;10.95;;
63114;SDS011;49208;50.874;6.466;2024-03-17T18:47:06;10.77;;;7.28;;
63114;SDS011;49208;50.874;6.466;2024-03-17T18:49:31;10.13;;;6.82;;
63114;SDS011;49208;50.874;6.466;2024-03-17T18:51:57;5.68;;;3.30;;
63114;SDS011;49208;50.874;6.466;2024-03-17T18:54:22;8.10;;;3.55;;
63114;SDS011;49208;50.874;6.466;2024-03-17T18:56:48;7.45;;;3.88;;
63114;SDS011;49208;50.874;6.466;2024-03-17T18:59:13;9.32;;;3.67;;
63114;SDS011;49208;50.874;6.466;2024-03-17T19:01:40;8.05;;;3.72;;
63114;SDS011;49208;50.874;6.466;2024-03-17T19:04:06;7.60;;;3.72;;
63114;SDS011;49208;50.874;6.466;2024-03-17T19:06:31;6.97;;;3.28;;
63114;SDS011;49208;50.874;6.466;2024-03-17T19:08:57;7.07;;;3.78;;
63114;SDS011;49208;50.874;6.466;2024-03-17T19:11:22;7.70;;;3.35;;
63114;SDS011;49208;50.874;6.466;2024-03-17T19:13:48;5.60;;;3.70;;
63114;SDS011;49208;50.874;6.466;2024-03-17T19:16:13;7.57;;;3.58;;
63114;SDS011;49208;50.874;6.466;2024-03-17T19:18:42;8.10;;;3.78;;
63114;SDS011;49208;50.874;6.466;2024-03-17T19:23:34;8.30;;;4.72;;
63114;SDS011;49208;50.874;6.466;2024-03-17T19:26:04;7.10;;;3.38;;
63114;SDS011;49208;50.874;6.466;2024-03-17T19:28:32;9.35;;;4.15;;
63114;SDS011;49208;50.874;6.466;2024-03-17T19:30:58;7.85;;;3.88;;
63114;SDS011;49208;50.874;6.466;2024-03-17T19:33:27;10.80;;;5.82;;
63114;SDS011;49208;50.874;6.466;2024-03-17T19:35:53;8.68;;;5.75;;
63114;SDS011;49208;50.874;6.466;2024-03-17T19:38:23;10.80;;;7.60;;
63114;SDS011;49208;50.874;6.466;2024-03-17T19:40:53;8.05;;;4.20;;
63114;SDS011;49208;50.874;6.466;2024-03-17T19:43:23;7.55;;;3.70;;
63114;SDS011;49208;50.874;6.466;2024-03-17T19:46:02;7.43;;;3.70;;
63114;SDS011;49208;50.874;6.466;2024-03-17T19:48:44;6.55;;;3.35;;
63114;SDS011;49208;50.874;6.466;2024-03-17T19:51:13;7.72;;;3.40;;
63114;SDS011;49208;50.874;6.466;2024-03-17T19:53:44;8.73;;;3.72;;
63114;SDS011;49208;50.874;6.466;2024-03-17T19:56:11;9.48;;;4.22;;
63114;SDS011;49208;50.874;6.466;2024-03-17T19:58:43;7.07;;;3.40;;
63114;SDS011;49208;50.874;6.466;2024-03-17T20:01:10;7.47;;;4.18;;
63114;SDS011;49208;50.874;6.466;2024-03-17T20:03:36;7.53;;;2.92;;
63114;SDS011;49208;50.874;6.466;2024-03-17T20:06:04;8.13;;;2.92;;
63114;SDS011;49208;50.874;6.466;2024-03-17T20:08:30;7.00;;;2.72;;
63114;SDS011;49208;50.874;6.466;2024-03-17T20:10:56;10.63;;;3.83;;
63114;SDS011;49208;50.874;6.466;2024-03-17T20:13:24;7.30;;;3.28;;
63114;SDS011;49208;50.874;6.466;2024-03-17T20:15:50;9.95;;;3.67;;
63114;SDS011;49208;50.874;6.466;2024-03-17T20:18:15;7.70;;;3.60;;
63114;SDS011;49208;50.874;6.466;2024-03-17T20:20:42;6.78;;;3.75;;
63114;SDS011;49208;50.874;6.466;2024-03-17T20:23:08;9.05;;;3.40;;
63114;SDS011;49208;50.874;6.466;2024-03-17T20:25:34;8.57;;;3.93;;
63114;SDS011;49208;50.874;6.466;2024-03-17T20:28:00;9.30;;;3.60;;
63114;SDS011;49208;50.874;6.466;2024-03-17T20:30:27;10.07;;;4.10;;
63114;SDS011;49208;50.874;6.466;2024-03-17T20:32:53;9.88;;;3.70;;
63114;SDS011;49208;50.874;6.466;2024-03-17T20:35:19;7.53;;;4.10;;
63114;SDS011;49208;50.874;6.466;2024-03-17T20:37:45;9.57;;;4.20;;
63114;SDS011;49208;50.874;6.466;2024-03-17T20:40:13;8.50;;;4.07;;
63114;SDS011;49208;50.874;6.466;2024-03-17T20:42:45;8.98;;;4.03;;
63114;SDS011;49208;50.874;6.466;2024-03-17T20:45:12;8.50;;;4.13;;
63114;SDS011;49208;50.874;6.466;2024-03-17T20:47:37;9.10;;;4.47;;
63114;SDS011;49208;50.874;6.466;2024-03-17T20:50:06;7.90;;;4.25;;
63114;SDS011;49208;50.874;6.466;2024-03-17T20:52:33;9.38;;;4.65;;
63114;SDS011;49208;50.874;6.466;2024-03-17T20:54:59;8.20;;;3.83;;
63114;SDS011;49208;50.874;6.466;2024-03-17T20:57:24;9.57;;;4.70;;
63114;SDS011;49208;50.874;6.466;2024-03-17T20:59:50;10.30;;;3.97;;
63114;SDS011;49208;50.874;6.466;2024-03-17T21:02:15;12.32;;;5.30;;
63114;SDS011;49208;50.874;6.466;2024-03-17T21:04:41;9.10;;;4.10;;
63114;SDS011;49208;50.874;6.466;2024-03-17T21:07:07;7.93;;;4.57;;
63114;SDS011;49208;50.874;6.466;2024-03-17T21:09:33;9.32;;;4.95;;
63114;SDS011;49208;50.874;6.466;2024-03-17T21:12:02;9.52;;;4.07;;
63114;SDS011;49208;50.874;6.466;2024-03-17T21:14:27;9.68;;;4.82;;
63114;SDS011;49208;50.874;6.466;2024-03-17T21:16:53;9.95;;;4.65;;
63114;SDS011;49208;50.874;6.466;2024-03-17T21:21:46;10.57;;;4.18;;
63114;SDS011;49208;50.874;6.466;2024-03-17T21:24:13;7.85;;;4.22;;
63114;SDS011;49208;50.874;6.466;2024-03-17T21:26:39;8.40;;;4.45;;
63114;SDS011;49208;50.874;6.466;2024-03-17T21:29:04;7.82;;;4.13;;
63114;SDS011;49208;50.874;6.466;2024-03-17T21:31:32;8.85;;;4.07;;
63114;SDS011;49208;50.874;6.466;2024-03-17T21:33:58;9.20;;;4.47;;
63114;SDS011;49208;50.874;6.466;2024-03-17T21:36:23;9.20;;;4.32;;
63114;SDS011;49208;50.874;6.466;2024-03-17T21:38:49;7.10;;;3.70;;
63114;SDS011;49208;50.874;6.466;2024-03-17T21:41:14;10.93;;;3.97;;
63114;SDS011;49208;50.874;6.466;2024-03-17T21:43:44;6.93;;;3.85;;
63114;SDS011;49208;50.874;6.466;2024-03-17T21:46:10;7.35;;;3.50;;
63114;SDS011;49208;50.874;6.466;2024-03-17T21:48:36;7.07;;;3.60;;
63114;SDS011;49208;50.874;6.466;2024-03-17T21:51:02;7.60;;;3.80;;
63114;SDS011;49208;50.874;6.466;2024-03-17T21:53:29;9.93;;;4.18;;
63114;SDS011;49208;50.874;6.466;2024-03-17T21:55:55;7.18;;;3.72;;
63114;SDS011;49208;50.874;6.466;2024-03-17T21:58:25;7.32;;;3.42;;
63114;SDS011;49208;50.874;6.466;2024-03-17T22:00:50;7.97;;;3.67;;
63114;SDS011;49208;50.874;6.466;2024-03-17T22:03:16;8.07;;;3.78;;
63114;SDS011;49208;50.874;6.466;2024-03-17T22:05:48;7.93;;;4.13;;
63114;SDS011;49208;50.874;6.466;2024-03-17T22:08:15;7.03;;;3.72;;
63114;SDS011;49208;50.874;6.466;2024-03-17T22:10:50;9.48;;;3.95;;
63114;SDS011;49208;50.874;6.466;2024-03-17T22:13:16;7.85;;;4.00;;
63114;SDS011;49208;50.874;6.466;2024-03-17T22:15:42;9.15;;;4.28;;
63114;SDS011;49208;50.874;6.466;2024-03-17T22:18:07;8.45;;;4.43;;
63114;SDS011;49208;50.874;6.466;2024-03-17T22:20:33;8.63;;;4.38;;
63114;SDS011;49208;50.874;6.466;2024-03-17T22:22:58;8.52;;;4.55;;
63114;SDS011;49208;50.874;6.466;2024-03-17T22:25:23;7.78;;;4.13;;
63114;SDS011;49208;50.874;6.466;2024-03-17T22:27:49;6.57;;;3.65;;
63114;SDS011;49208;50.874;6.466;2024-03-17T22:30:14;7.95;;;4.05;;
63114;SDS011;49208;50.874;6.466;2024-03-17T22:32:40;9.55;;;4.40;;
63114;SDS011;49208;50.874;6.466;2024-03-17T22:35:05;6.82;;;3.42;;
63114;SDS011;49208;50.874;6.466;2024-03-17T22:37:31;7.57;;;4.15;;
63114;SDS011;49208;50.874;6.466;2024-03-17T22:39:56;8.88;;;3.60;;
63114;SDS011;49208;50.874;6.466;2024-03-17T22:42:22;7.47;;;4.07;;
63114;SDS011;49208;50.874;6.466;2024-03-17T22:44:48;7.00;;;4.03;;